createdAt,value
2022-10-15T00:01:10.868Z,981.7
2022-10-15T00:03:36.977Z,981.7
2022-10-15T00:06:03.060Z,981.7
2022-10-15T00:08:29.176Z,981.6
2022-10-15T00:10:55.248Z,981.6
2022-10-15T00:13:20.353Z,981.6
2022-10-15T00:15:46.458Z,981.6
2022-10-15T00:18:12.558Z,981.6
2022-10-15T00:20:38.658Z,981.7
2022-10-15T00:23:04.726Z,981.6
2022-10-15T00:25:30.865Z,981.6
2022-10-15T00:27:56.930Z,981.5
2022-10-15T00:30:23.068Z,981.6
2022-10-15T00:32:49.111Z,981.5
2022-10-15T00:35:15.265Z,981.5
2022-10-15T00:37:41.310Z,981.5
2022-10-15T00:40:07.409Z,981.5
2022-10-15T00:42:33.510Z,981.5
2022-10-15T00:44:58.604Z,981.5
2022-10-15T00:47:24.687Z,981.5
2022-10-15T00:49:50.796Z,981.5
2022-10-15T00:52:16.890Z,981.4
2022-10-15T00:54:43.014Z,981.4
2022-10-15T00:57:09.078Z,981.4
2022-10-15T00:59:34.235Z,981.4
2022-10-15T01:02:00.300Z,981.3
2022-10-15T01:04:26.438Z,981.4
2022-10-15T01:06:52.477Z,981.3
2022-10-15T01:09:18.577Z,981.3
2022-10-15T01:11:44.682Z,981.2
2022-10-15T01:14:10.776Z,981.2
2022-10-15T01:16:36.883Z,981.1
2022-10-15T01:19:02.952Z,981
2022-10-15T01:21:29.089Z,981.1
2022-10-15T01:23:55.128Z,981.1
2022-10-15T01:26:21.289Z,981
2022-10-15T01:28:47.353Z,981.1
2022-10-15T01:31:12.447Z,981.1
2022-10-15T01:33:38.595Z,981
2022-10-15T01:36:04.634Z,981.1
2022-10-15T01:38:30.774Z,981
2022-10-15T01:40:56.828Z,981
2022-10-15T01:43:22.977Z,980.9
2022-10-15T01:45:49.023Z,980.9
2022-10-15T01:48:15.118Z,981
2022-10-15T01:50:41.226Z,981
2022-10-15T01:53:07.287Z,980.9
2022-10-15T01:55:33.428Z,980.9
2022-10-15T01:57:59.472Z,980.9
2022-10-15T02:00:25.632Z,980.9
2022-10-15T02:02:50.709Z,980.9
2022-10-15T02:05:16.801Z,980.8
2022-10-15T02:07:42.905Z,980.8
2022-10-15T02:10:09.013Z,980.8
2022-10-15T02:12:35.147Z,980.8
2022-10-15T02:15:01.162Z,980.7
2022-10-15T02:17:27.252Z,980.8
2022-10-15T02:19:53.384Z,980.7
2022-10-15T02:22:19.448Z,980.7
2022-10-15T02:24:45.561Z,980.7
2022-10-15T02:27:11.621Z,980.7
2022-10-15T02:29:37.819Z,980.6
2022-10-15T02:32:03.819Z,980.7
2022-10-15T02:34:28.934Z,980.7
2022-10-15T02:36:55.051Z,980.7
2022-10-15T02:39:21.140Z,980.7
2022-10-15T02:41:47.267Z,980.8
2022-10-15T02:44:13.293Z,980.8
2022-10-15T02:46:39.444Z,980.8
2022-10-15T02:49:05.513Z,980.9
2022-10-15T02:51:31.600Z,980.8
2022-10-15T02:53:57.693Z,980.8
2022-10-15T02:56:23.775Z,980.8
2022-10-15T02:58:49.915Z,980.9
2022-10-15T03:01:15.957Z,980.9
2022-10-15T03:03:42.102Z,980.9
2022-10-15T03:06:07.200Z,981
2022-10-15T03:08:33.260Z,981
2022-10-15T03:10:59.376Z,981
2022-10-15T03:13:25.469Z,981
2022-10-15T03:15:51.599Z,981
2022-10-15T03:18:17.643Z,981.1
2022-10-15T03:20:43.806Z,981
2022-10-15T03:23:09.839Z,981.1
2022-10-15T03:25:35.985Z,981
2022-10-15T03:28:02.029Z,981
2022-10-15T03:30:28.118Z,981.1
2022-10-15T03:32:54.229Z,981.1
2022-10-15T03:35:20.301Z,981.1
2022-10-15T03:37:45.476Z,981.1
2022-10-15T03:40:11.519Z,981
2022-10-15T03:42:37.626Z,981
2022-10-15T03:45:03.714Z,981
2022-10-15T03:47:29.806Z,981.1
2022-10-15T03:49:55.920Z,981.1
2022-10-15T03:52:21.996Z,981.1
2022-10-15T03:54:48.129Z,981.1
2022-10-15T03:57:14.192Z,981.2
2022-10-15T03:59:40.324Z,981.1
2022-10-15T04:02:06.382Z,981.2
2022-10-15T04:04:32.527Z,981.2
2022-10-15T04:06:58.591Z,981.2
2022-10-15T04:09:23.705Z,981.3
2022-10-15T04:11:49.827Z,981.4
2022-10-15T04:14:15.859Z,981.4
2022-10-15T04:16:41.946Z,981.4
2022-10-15T04:21:34.145Z,981.5
2022-10-15T04:24:00.255Z,981.5
2022-10-15T04:26:26.334Z,981.4
2022-10-15T04:28:52.463Z,981.5
2022-10-15T04:31:18.524Z,981.5
2022-10-15T04:33:44.660Z,981.5
2022-10-15T04:36:10.754Z,981.5
2022-10-15T04:38:36.866Z,981.5
2022-10-15T04:41:01.990Z,981.6
2022-10-15T04:43:28.021Z,981.6
2022-10-15T04:45:54.144Z,981.6
2022-10-15T04:48:20.200Z,981.7
2022-10-15T04:50:46.348Z,981.6
2022-10-15T04:53:12.388Z,981.6
2022-10-15T04:58:04.591Z,981.6
2022-10-15T05:00:30.736Z,981.7
2022-10-15T05:02:56.794Z,981.7
2022-10-15T05:05:22.857Z,981.7
2022-10-15T05:07:48.999Z,981.7
2022-10-15T05:10:15.090Z,981.7
2022-10-15T05:12:40.177Z,981.7
2022-10-15T05:15:06.278Z,981.8
2022-10-15T05:17:32.444Z,981.7
2022-10-15T05:19:58.484Z,981.7
2022-10-15T05:22:24.547Z,981.7
2022-10-15T05:24:50.695Z,981.7
2022-10-15T05:27:16.742Z,981.7
2022-10-15T05:29:42.885Z,981.9
2022-10-15T05:32:08.942Z,981.9
2022-10-15T05:34:35.026Z,981.9
2022-10-15T05:37:01.132Z,982
2022-10-15T05:39:27.209Z,982
2022-10-15T05:41:53.334Z,982.1
2022-10-15T05:44:18.416Z,982
2022-10-15T05:46:44.578Z,982
2022-10-15T05:49:10.620Z,982
2022-10-15T05:51:36.732Z,982.2
2022-10-15T05:54:02.857Z,982.2
2022-10-15T05:56:28.886Z,982.2
2022-10-15T05:58:55.021Z,982.2
2022-10-15T06:01:21.091Z,982.2
2022-10-15T06:03:47.282Z,982.3
2022-10-15T06:06:13.291Z,982.2
2022-10-15T06:08:39.361Z,982.2
2022-10-15T06:11:05.467Z,982.3
2022-10-15T06:13:31.567Z,982.4
2022-10-15T06:15:56.708Z,982.4
2022-10-15T06:18:22.777Z,982.4
2022-10-15T06:20:48.918Z,982.4
2022-10-15T06:23:14.952Z,982.5
2022-10-15T06:25:41.043Z,982.6
2022-10-15T06:28:07.174Z,982.6
2022-10-15T06:30:33.241Z,982.6
2022-10-15T06:32:59.371Z,982.7
2022-10-15T06:35:25.427Z,982.7
2022-10-15T06:37:51.561Z,982.8
2022-10-15T06:40:17.629Z,982.8
2022-10-15T06:42:43.766Z,982.8
2022-10-15T06:45:09.803Z,982.9
2022-10-15T06:47:34.934Z,982.9
2022-10-15T06:50:01.072Z,982.9
2022-10-15T06:52:27.129Z,983
2022-10-15T06:54:53.255Z,983.2
2022-10-15T06:57:19.295Z,983.2
2022-10-15T06:59:45.525Z,983.3
2022-10-15T07:02:11.494Z,983.3
2022-10-15T07:04:37.572Z,983.3
2022-10-15T07:07:03.693Z,983.3
2022-10-15T07:09:29.767Z,983.3
2022-10-15T07:11:55.896Z,983.3
2022-10-15T07:14:21.951Z,983.3
2022-10-15T07:16:48.111Z,983.3
2022-10-15T07:19:13.199Z,983.3
2022-10-15T07:21:39.266Z,983.4
2022-10-15T07:24:05.402Z,983.5
2022-10-15T07:26:31.438Z,983.5
2022-10-15T07:28:57.584Z,983.4
2022-10-15T07:31:23.646Z,983.6
2022-10-15T07:33:49.837Z,983.6
2022-10-15T07:36:15.843Z,983.5
2022-10-15T07:38:41.983Z,983.5
2022-10-15T07:41:08.056Z,983.6
2022-10-15T07:43:34.114Z,983.6
2022-10-15T07:46:00.255Z,983.6
2022-10-15T07:48:26.313Z,983.7
2022-10-15T07:50:51.474Z,983.7
2022-10-15T07:53:17.510Z,983.8
2022-10-15T07:55:43.592Z,983.8
2022-10-15T07:58:09.728Z,983.9
2022-10-15T08:00:35.798Z,983.9
2022-10-15T08:03:01.916Z,983.8
2022-10-15T08:05:27.981Z,983.9
2022-10-15T08:07:54.120Z,983.9
2022-10-15T08:10:20.197Z,983.9
2022-10-15T08:12:46.273Z,983.9
2022-10-15T08:15:12.375Z,983.9
2022-10-15T08:17:38.532Z,984
2022-10-15T08:20:04.566Z,984.1
2022-10-15T08:22:29.670Z,984.1
2022-10-15T08:24:55.813Z,984
2022-10-15T08:27:21.866Z,984.1
2022-10-15T08:29:48.013Z,984.1
2022-10-15T08:32:14.111Z,984.1
2022-10-15T08:34:40.139Z,984.1
2022-10-15T08:37:06.266Z,984.1
2022-10-15T08:39:32.330Z,984.1
2022-10-15T08:41:58.457Z,984.2
2022-10-15T08:44:24.533Z,984.1
2022-10-15T08:46:50.662Z,984.1
2022-10-15T08:49:16.730Z,984.1
2022-10-15T08:51:42.859Z,984.1
2022-10-15T08:54:07.971Z,984.1
2022-10-15T08:56:34.038Z,984.1
2022-10-15T08:59:00.151Z,984.1
2022-10-15T09:01:26.205Z,984
2022-10-15T09:03:52.347Z,984.1
2022-10-15T09:06:18.415Z,984.1
2022-10-15T09:08:43.607Z,984.1
2022-10-15T09:11:09.632Z,984.2
2022-10-15T09:13:35.719Z,984.1
2022-10-15T09:16:01.834Z,984.1
2022-10-15T09:18:27.915Z,984.2
2022-10-15T09:20:54.052Z,984.2
2022-10-15T09:23:20.087Z,984.1
2022-10-15T09:25:46.252Z,984.2
2022-10-15T09:28:12.346Z,984.2
2022-10-15T09:30:38.437Z,984.2
2022-10-15T09:33:04.483Z,984.2
2022-10-15T09:35:30.601Z,984.2
2022-10-15T09:37:56.697Z,984.2
2022-10-15T09:40:21.794Z,984.2
2022-10-15T09:42:47.927Z,984.3
2022-10-15T09:45:13.973Z,984.2
2022-10-15T09:47:40.054Z,984.3
2022-10-15T09:50:06.201Z,984.3
2022-10-15T09:52:32.249Z,984.3
2022-10-15T09:54:58.372Z,984.3
2022-10-15T09:57:24.448Z,984.3
2022-10-15T09:59:50.576Z,984.3
2022-10-15T10:02:16.682Z,984.3
2022-10-15T10:04:42.803Z,984.3
2022-10-15T10:07:08.863Z,984.3
2022-10-15T10:09:34.983Z,984.3
2022-10-15T10:12:01.047Z,984.4
2022-10-15T10:14:26.141Z,984.4
2022-10-15T10:16:52.263Z,984.3
2022-10-15T10:19:18.325Z,984.4
2022-10-15T10:21:44.505Z,984.4
2022-10-15T10:24:10.522Z,984.4
2022-10-15T10:26:36.669Z,984.5
2022-10-15T10:29:02.710Z,984.5
2022-10-15T10:31:28.781Z,984.4
2022-10-15T10:33:54.929Z,984.4
2022-10-15T10:36:21.023Z,984.5
2022-10-15T10:38:47.117Z,984.5
2022-10-15T10:41:13.201Z,984.6
2022-10-15T10:43:39.317Z,984.5
2022-10-15T10:46:04.424Z,984.5
2022-10-15T10:48:30.490Z,984.5
2022-10-15T10:50:56.596Z,984.6
2022-10-15T10:53:22.673Z,984.6
2022-10-15T10:55:48.800Z,984.6
2022-10-15T10:58:14.849Z,984.6
2022-10-15T11:00:41.007Z,984.6
2022-10-15T11:03:07.065Z,984.7
2022-10-15T11:05:33.144Z,984.6
2022-10-15T11:07:59.253Z,984.7
2022-10-15T11:10:25.342Z,984.6
2022-10-15T11:12:51.451Z,984.6
2022-10-15T11:15:17.514Z,984.7
2022-10-15T11:17:42.700Z,984.7
2022-10-15T11:20:08.729Z,984.7
2022-10-15T11:22:34.824Z,984.6
2022-10-15T11:25:00.936Z,984.6
2022-10-15T11:27:27.011Z,984.5
2022-10-15T11:29:53.275Z,984.5
2022-10-15T11:32:19.312Z,984.5
2022-10-15T11:34:45.347Z,984.5
2022-10-15T11:37:11.408Z,984.4
2022-10-15T11:39:37.549Z,984.5
2022-10-15T11:42:03.608Z,984.5
2022-10-15T11:44:29.685Z,984.5
2022-10-15T11:46:55.801Z,984.5
2022-10-15T11:49:20.885Z,984.4
2022-10-15T11:51:47.044Z,984.4
2022-10-15T11:54:13.123Z,984.3
2022-10-15T11:56:39.249Z,984.3
2022-10-15T11:59:05.273Z,984.3
2022-10-15T12:01:31.367Z,984.3
2022-10-15T12:03:57.472Z,984.2
2022-10-15T12:06:23.567Z,984.1
2022-10-15T12:08:49.682Z,984.2
2022-10-15T12:11:15.761Z,984.2
2022-10-15T12:13:41.874Z,984.2
2022-10-15T12:16:07.962Z,984.1
2022-10-15T12:18:34.083Z,984.1
2022-10-15T12:20:59.164Z,984.1
2022-10-15T12:23:25.261Z,984.1
2022-10-15T12:25:51.362Z,984.1
2022-10-15T12:28:17.425Z,984
2022-10-15T12:30:43.569Z,984
2022-10-15T12:33:09.637Z,984.1
2022-10-15T12:35:35.776Z,984
2022-10-15T12:38:01.826Z,984.1
2022-10-15T12:40:27.992Z,984.2
2022-10-15T12:42:54.018Z,984.1
2022-10-15T12:45:20.106Z,984.2
2022-10-15T12:47:46.215Z,984.1
2022-10-15T12:50:12.302Z,984
2022-10-15T12:52:37.457Z,984.1
2022-10-15T12:55:03.514Z,984.1
2022-10-15T12:57:29.658Z,984.1
2022-10-15T12:59:55.724Z,984.1
2022-10-15T13:02:21.797Z,984.1
2022-10-15T13:04:47.905Z,984
2022-10-15T13:07:13.998Z,984
2022-10-15T13:09:40.106Z,984
2022-10-15T13:12:06.163Z,984
2022-10-15T13:14:32.310Z,984
2022-10-15T13:16:58.385Z,983.9
2022-10-15T13:19:24.508Z,983.9
2022-10-15T13:21:50.557Z,984
2022-10-15T13:24:15.712Z,984
2022-10-15T13:26:41.790Z,984.1
2022-10-15T13:29:07.862Z,984.2
2022-10-15T13:31:33.999Z,984.1
2022-10-15T13:34:00.064Z,984.1
2022-10-15T13:36:26.198Z,984
2022-10-15T13:38:52.246Z,984
2022-10-15T13:41:18.391Z,984.1
2022-10-15T13:43:44.443Z,984.1
2022-10-15T13:46:10.846Z,984.1
2022-10-15T13:48:36.647Z,984
2022-10-15T13:51:02.715Z,984.1
2022-10-15T13:53:28.847Z,984.1
2022-10-15T13:55:53.925Z,984.1
2022-10-15T13:58:20.028Z,984.1
2022-10-15T14:00:46.129Z,984.1
2022-10-15T14:03:12.201Z,984.1
2022-10-15T14:05:38.329Z,984
2022-10-15T14:08:04.397Z,984.1
2022-10-15T14:10:30.534Z,984.1
2022-10-15T14:12:56.628Z,984.1
2022-10-15T14:15:22.738Z,984.2
2022-10-15T14:17:48.776Z,984.2
2022-10-15T14:20:14.939Z,984.2
2022-10-15T14:22:40.977Z,984.2
2022-10-15T14:25:07.088Z,984.2
2022-10-15T14:27:32.245Z,984.2
2022-10-15T14:29:58.275Z,984.2
2022-10-15T14:32:24.424Z,984.2
2022-10-15T14:34:50.468Z,984.2
2022-10-15T14:37:16.570Z,984.3
2022-10-15T14:39:42.683Z,984.3
2022-10-15T14:42:08.749Z,984.3
2022-10-15T14:44:34.866Z,984.2
2022-10-15T14:47:00.942Z,984.1
2022-10-15T14:49:27.073Z,984.1
2022-10-15T14:51:53.124Z,984.1
2022-10-15T14:54:19.215Z,984.1
2022-10-15T14:56:45.312Z,984.2
2022-10-15T14:59:10.418Z,984.2
2022-10-15T15:01:36.571Z,984.2
2022-10-15T15:04:02.624Z,984.1
2022-10-15T15:06:28.700Z,984.1
2022-10-15T15:08:54.818Z,984.1
2022-10-15T15:11:20.902Z,984.1
2022-10-15T15:13:47.010Z,984
2022-10-15T15:16:13.105Z,984
2022-10-15T15:18:39.216Z,984
2022-10-15T15:21:05.276Z,984
2022-10-15T15:25:57.514Z,984
2022-10-15T15:28:23.608Z,984
2022-10-15T15:30:48.703Z,984
2022-10-15T15:33:14.777Z,984
2022-10-15T15:35:40.893Z,984.1
2022-10-15T15:38:06.987Z,984.2
2022-10-15T15:40:33.108Z,984.2
2022-10-15T15:42:59.149Z,984.2
2022-10-15T15:45:25.233Z,984.1
2022-10-15T15:47:51.347Z,984.2
2022-10-15T15:50:17.448Z,984.2
2022-10-15T15:52:43.542Z,984.2
2022-10-15T15:55:09.629Z,984.2
2022-10-15T15:57:35.757Z,984.2
2022-10-15T16:00:01.813Z,984.2
2022-10-15T16:02:26.919Z,984.2
2022-10-15T16:04:53.031Z,984.2
2022-10-15T16:07:19.124Z,984.2
2022-10-15T16:09:45.241Z,984.2
2022-10-15T16:12:11.332Z,984.1
2022-10-15T16:14:37.432Z,984.2
2022-10-15T16:17:03.477Z,984.2
2022-10-15T16:19:29.638Z,984.3
2022-10-15T16:21:55.671Z,984.3
2022-10-15T16:24:21.831Z,984.4
2022-10-15T16:26:47.876Z,984.4
2022-10-15T16:29:13.968Z,984.5
2022-10-15T16:31:40.078Z,984.5
2022-10-15T16:34:05.249Z,984.5
2022-10-15T16:36:31.352Z,984.5
2022-10-15T16:38:57.377Z,984.5
2022-10-15T16:41:23.456Z,984.6
2022-10-15T16:43:49.575Z,984.5
2022-10-15T16:46:15.661Z,984.5
2022-10-15T16:48:41.765Z,984.6
2022-10-15T16:51:07.831Z,984.6
2022-10-15T16:53:33.970Z,984.7
2022-10-15T16:56:00.041Z,984.7
2022-10-15T16:58:26.178Z,984.7
2022-10-15T17:00:52.304Z,984.7
2022-10-15T17:03:18.307Z,984.6
2022-10-15T17:05:43.453Z,984.8
2022-10-15T17:08:09.509Z,984.8
2022-10-15T17:10:35.773Z,984.8
2022-10-15T17:13:01.728Z,984.9
2022-10-15T17:15:27.932Z,984.8
2022-10-15T17:17:52.941Z,985
2022-10-15T17:20:19.041Z,985
2022-10-15T17:22:45.154Z,985
2022-10-15T17:25:11.211Z,985.1
2022-10-15T17:27:37.349Z,985.2
2022-10-15T17:30:03.406Z,985.1
2022-10-15T17:32:29.548Z,985.1
2022-10-15T17:34:55.612Z,985.2
2022-10-15T17:37:21.705Z,985.2
2022-10-15T17:39:47.821Z,985.3
2022-10-15T17:42:13.890Z,985.1
2022-10-15T17:44:40.001Z,985.3
2022-10-15T17:47:06.127Z,985.3
2022-10-15T17:49:31.240Z,985.2
2022-10-15T17:51:57.314Z,985.3
2022-10-15T17:54:23.407Z,985.3
2022-10-15T17:56:49.540Z,985.3
2022-10-15T17:59:15.604Z,985.3
2022-10-15T18:01:41.783Z,985.4
2022-10-15T18:04:07.780Z,985.4
2022-10-15T18:06:33.890Z,985.4
2022-10-15T18:08:59.962Z,985.5
2022-10-15T18:11:26.105Z,985.4
2022-10-15T18:13:52.140Z,985.5
2022-10-15T18:16:18.301Z,985.4
2022-10-15T18:18:44.336Z,985.5
2022-10-15T18:21:09.438Z,985.5
2022-10-15T18:23:35.588Z,985.6
2022-10-15T18:26:01.644Z,985.6
2022-10-15T18:28:27.783Z,985.6
2022-10-15T18:30:53.832Z,985.6
2022-10-15T18:33:19.915Z,985.5
2022-10-15T18:35:46.019Z,985.5
2022-10-15T18:38:12.139Z,985.4
2022-10-15T18:40:38.224Z,985.4
2022-10-15T18:43:04.312Z,985.5
2022-10-15T18:45:30.426Z,985.5
2022-10-15T18:47:56.496Z,985.5
2022-10-15T18:50:22.626Z,985.4
2022-10-15T18:52:47.748Z,985.4
2022-10-15T18:55:13.800Z,985.4
2022-10-15T18:57:39.905Z,985.5
2022-10-15T19:00:06.003Z,985.5
2022-10-15T19:02:32.112Z,985.5
2022-10-15T19:04:58.188Z,985.5
2022-10-15T19:07:24.317Z,985.6
2022-10-15T19:09:50.366Z,985.5
2022-10-15T19:12:16.467Z,985.6
2022-10-15T19:14:42.560Z,985.7
2022-10-15T19:17:08.652Z,985.7
2022-10-15T19:19:34.761Z,985.7
2022-10-15T19:22:00.848Z,985.8
2022-10-15T19:24:25.998Z,985.8
2022-10-15T19:26:52.060Z,985.8
2022-10-15T19:29:18.205Z,985.8
2022-10-15T19:31:44.256Z,985.9
2022-10-15T19:34:10.357Z,985.9
2022-10-15T19:36:36.492Z,985.9
2022-10-15T19:39:02.550Z,985.9
2022-10-15T19:41:28.645Z,985.9
2022-10-15T19:43:54.722Z,985.9
2022-10-15T19:46:20.879Z,985.8
2022-10-15T19:48:46.901Z,985.9
2022-10-15T19:51:13.080Z,985.9
2022-10-15T19:53:39.129Z,986
2022-10-15T19:56:04.226Z,986
2022-10-15T19:58:30.362Z,986
2022-10-15T20:00:56.402Z,985.9
2022-10-15T20:03:22.597Z,986
2022-10-15T20:05:48.585Z,985.9
2022-10-15T20:08:14.746Z,985.9
2022-10-15T20:10:40.797Z,985.9
2022-10-15T20:13:06.950Z,985.9
2022-10-15T20:15:33.957Z,986
2022-10-15T20:17:59.084Z,986
2022-10-15T20:20:25.192Z,986
2022-10-15T20:22:51.253Z,986
2022-10-15T20:25:17.396Z,986.1
2022-10-15T20:27:42.473Z,986
2022-10-15T20:30:08.576Z,986
2022-10-15T20:32:34.705Z,986.2
2022-10-15T20:35:00.781Z,986.2
2022-10-15T20:37:26.878Z,986.4
2022-10-15T20:39:52.939Z,986.5
2022-10-15T20:44:45.164Z,986.5
2022-10-15T20:47:11.285Z,986.5
2022-10-15T20:49:37.322Z,986.6
2022-10-15T20:52:03.412Z,986.7
2022-10-15T20:54:29.525Z,986.6
2022-10-15T20:56:55.644Z,986.6
2022-10-15T20:59:20.774Z,986.6
2022-10-15T21:01:46.822Z,986.6
2022-10-15T21:04:12.910Z,986.6
2022-10-15T21:06:39.017Z,986.6
2022-10-15T21:09:05.114Z,986.6
2022-10-15T21:11:31.225Z,986.6
2022-10-15T21:13:57.281Z,986.6
2022-10-15T21:16:23.427Z,986.6
2022-10-15T21:18:49.536Z,986.7
2022-10-15T21:21:15.616Z,986.7
2022-10-15T21:23:41.735Z,986.7
2022-10-15T21:26:07.818Z,986.7
2022-10-15T21:28:33.863Z,986.7
2022-10-15T21:30:59.013Z,986.7
2022-10-15T21:33:25.101Z,986.7
2022-10-15T21:35:51.176Z,986.7
2022-10-15T21:38:17.351Z,986.8
2022-10-15T21:40:43.366Z,986.8
2022-10-15T21:43:09.542Z,986.8
2022-10-15T21:45:35.549Z,986.8
2022-10-15T21:48:01.649Z,986.8
2022-10-15T21:50:27.750Z,986.8
2022-10-15T21:52:53.844Z,986.8
2022-10-15T21:55:19.960Z,986.8
2022-10-15T21:57:46.027Z,986.9
2022-10-15T22:00:12.158Z,987
2022-10-15T22:02:37.232Z,986.9
2022-10-15T22:05:03.341Z,986.9
2022-10-15T22:07:29.494Z,986.9
2022-10-15T22:09:55.533Z,986.8
2022-10-15T22:12:21.668Z,986.7
2022-10-15T22:14:47.698Z,986.7
2022-10-15T22:17:13.842Z,986.7
2022-10-15T22:19:39.897Z,986.6
2022-10-15T22:22:06.055Z,986.8
2022-10-15T22:24:32.085Z,986.8
2022-10-15T22:26:58.180Z,986.9
2022-10-15T22:29:24.289Z,986.9
2022-10-15T22:31:50.374Z,986.9
2022-10-15T22:34:15.579Z,986.9
2022-10-15T22:36:41.573Z,986.9
2022-10-15T22:39:07.661Z,986.9
2022-10-15T22:41:33.774Z,986.9
2022-10-15T22:43:59.848Z,986.9
2022-10-15T22:46:26.045Z,986.9
2022-10-15T22:48:52.049Z,986.9
2022-10-15T22:51:18.183Z,986.9
2022-10-15T22:53:44.247Z,986.9
2022-10-15T22:56:10.388Z,986.9
2022-10-15T22:58:36.430Z,986.9
2022-10-15T23:01:02.590Z,986.9
2022-10-15T23:03:28.660Z,987
2022-10-15T23:05:53.773Z,987
2022-10-15T23:08:19.869Z,987
2022-10-15T23:10:45.924Z,987
2022-10-15T23:13:12.071Z,987
2022-10-15T23:15:38.126Z,987.1
2022-10-15T23:18:04.202Z,987.1
2022-10-15T23:20:30.313Z,987.1
2022-10-15T23:22:56.401Z,987
2022-10-15T23:25:22.540Z,987.1
2022-10-15T23:27:48.596Z,987.1
2022-10-15T23:30:14.720Z,987
2022-10-15T23:32:40.780Z,987
2022-10-15T23:35:06.964Z,987
2022-10-15T23:37:32.003Z,987.1
2022-10-15T23:39:58.087Z,987.1
2022-10-15T23:42:24.232Z,987.1
2022-10-15T23:44:50.260Z,987.1
2022-10-15T23:47:16.442Z,987.1
2022-10-15T23:49:42.467Z,987.1
2022-10-15T23:52:08.537Z,987.1
2022-10-15T23:54:34.760Z,987
2022-10-15T23:57:00.835Z,987.1
2022-10-15T23:59:26.848Z,987.1
